Terminal Aerodrome Forecast
Issued by NWS Sterling, VA

Current Version | Previous Version | Text Only | Print | Product List | Glossary Off
Versions: 1 2 3 4 5 6 7 8 9 10 11 12 13 14 15 16 17 18 19 20 21 22 23 24 25

000
FTUS41 KLWX 142043 AAA
TAFIAD
TAF AMD
KIAD 142043Z 1421/1524 00000KT P6SM FEW021
     FM142300 00000KT P6SM FEW150
     FM150600 00000KT 3SM BR BKN008
     FM150700 00000KT 3SM BR BKN008
     FM151500 20010KT P6SM SCT250
     FM151700 20012G19KT P6SM FEW250
     FM152300 20009KT P6SM SCT070=

USA.gov is the U.S. government's official web portal to all federal, state and local government web resources and services.